createdAt,value
2022-10-31T00:04:42.491Z,26.1721
2022-10-31T00:19:44.347Z,25.3921
2022-10-31T00:34:46.217Z,26.338
2022-10-31T00:49:48.064Z,26.6209
2022-10-31T01:04:49.925Z,26.9168
2022-10-31T01:19:51.794Z,26.7249
2022-10-31T01:34:53.805Z,27.5668
2022-10-31T01:49:55.724Z,27.1186
2022-10-31T02:04:57.775Z,27.5278
2022-10-31T02:19:59.756Z,27.8596
2022-10-31T02:35:01.708Z,27.3916
2022-10-31T02:50:03.616Z,27.6027
2022-10-31T03:05:05.557Z,28.0057
2022-10-31T03:20:07.491Z,27.7426
2022-10-31T03:35:09.445Z,27.7426
2022-10-31T03:50:11.345Z,27.2195
2022-10-31T04:05:13.255Z,27.7785
2022-10-31T04:20:15.196Z,27.8144
2022-10-31T04:35:17.151Z,27.6906
2022-10-31T04:50:19.150Z,27.3037
2022-10-31T05:05:21.112Z,27.1576
2022-10-31T05:20:23.069Z,27.3359
2022-10-31T05:35:24.997Z,24.7328
2022-10-31T05:50:26.929Z,23.0812
2022-10-31T06:05:28.944Z,23.1493
2022-10-31T06:20:30.850Z,22.1613
2022-10-31T06:35:32.765Z,21.6896
2022-10-31T06:50:34.729Z,21.4717
2022-10-31T07:05:36.733Z,21.5856
2022-10-31T07:20:38.715Z,21.6048
2022-10-31T07:35:40.680Z,21.8487
2022-10-31T07:50:42.625Z,21.0068
2022-10-31T08:05:44.536Z,22.1898
2022-10-31T08:20:46.428Z,21.4519
2022-10-31T08:35:48.337Z,21.7868
2022-10-31T08:50:50.270Z,21.8778
2022-10-31T09:05:52.230Z,20.8898
2022-10-31T09:20:54.231Z,20.6298
2022-10-31T09:35:56.120Z,20.0058
2022-10-31T09:50:58.026Z,20.6719
2022-10-31T10:05:59.991Z,20.0999
2022-10-31T10:21:01.912Z,20.1909
2022-10-31T10:36:04.114Z,19.934
2022-10-31T10:51:06.047Z,19.674
2022-10-31T11:06:07.970Z,19.6152
2022-10-31T11:21:10.028Z,20.7109
2022-10-31T11:36:11.967Z,20.4509
2022-10-31T11:51:13.940Z,20.8279
2022-10-31T12:06:15.978Z,19.973
2022-10-31T12:21:17.970Z,20.597
2022-10-31T12:36:19.910Z,20.3401
2022-10-31T12:51:21.837Z,19.8529
2022-10-31T13:06:23.738Z,20.0578
2022-10-31T13:21:25.676Z,19.6709
2022-10-31T13:36:27.590Z,19.8752
2022-10-31T13:51:29.495Z,19.9111
2022-10-31T14:06:31.443Z,19.8003
2022-10-31T14:21:33.382Z,20.3141
2022-10-31T14:36:35.328Z,21.6599
2022-10-31T14:51:37.299Z,21.1597
2022-10-31T15:06:39.233Z,22.6708
2022-10-31T15:21:41.260Z,21.9298
2022-10-31T15:36:43.228Z,22.1508
2022-10-31T15:51:48.238Z,22.0047
2022-10-31T16:06:52.487Z,21.8456
2022-10-31T16:21:54.420Z,21.9787
2022-10-31T16:36:56.376Z,23.2366
2022-10-31T16:51:58.316Z,23.9355
2022-10-31T17:07:00.318Z,23.0385
2022-10-31T17:22:02.259Z,23.7634
2022-10-31T17:37:04.247Z,24.8684
2022-10-31T17:52:06.167Z,23.8352
2022-10-31T18:07:08.160Z,25.623
2022-10-31T18:22:10.232Z,25.2274
2022-10-31T18:37:12.172Z,25.813
2022-10-31T18:52:14.140Z,26.1572
2022-10-31T19:07:16.065Z,25.2472
2022-10-31T19:22:18.087Z,24.0803
2022-10-31T19:37:20.050Z,23.7132
2022-10-31T19:52:22.003Z,23.7293
2022-10-31T20:07:23.939Z,25.2274
2022-10-31T20:22:25.945Z,25.0454
2022-10-31T20:37:27.857Z,25.605
2022-10-31T20:52:29.796Z,25.6502
2022-10-31T21:07:31.775Z,26.1572
2022-10-31T21:22:33.745Z,25.8062
2022-10-31T21:37:35.853Z,26.4203
2022-10-31T21:52:37.718Z,26.1733
2022-10-31T22:07:39.695Z,25.9554
2022-10-31T22:22:41.618Z,26.0371
2022-10-31T22:37:43.582Z,26.1603
2022-10-31T22:52:45.503Z,26.1244
2022-10-31T23:07:47.484Z,25.9913
2022-10-31T23:22:49.448Z,22.9035
2022-10-31T23:37:51.383Z,26.2996
2022-10-31T23:52:53.398Z,25.7604
